Hovedside
METAR-TAF:

METAR-TAF

Lufthavner :

Indira Gandhi internasjonale lufthavn

New Delhi, India

breddegrad: 28-34N, lengdegrad: 077-07E, høyde over havet: 220 m

Gjeldene værobservasjon

Denne rapporten ble laget for 30 minutter siden, klokken 17:00 UTC
Vind 3 kt fra Øst
Temperatur 30°C
Luftfuktighet 79%
Trykk 1000 hPa
Sikt: 4000 m
Spredte skyer i en høyde av 3000 ft
Brutte skyer i en høyde av 10000 ft
dis

METAR: VIDP 231700Z 08003KT 4000 BR SCT030 BKN100 30/26 Q1000 NOSIG

Tid: 23:00 (17:30 UTC)

Varsel

Denne rapporten ble laget for 3 timer og 30 minutter siden, klokken 14:00 UTC
Varsel gyldig fra 23. klokken 15 UTC til 23. klokken 24 UTC
Vind 6 kt fra Øst
Sikt: 4000 m
Spredte skyer i en høyde av 3000 ft
Brutte skyer i en høyde av 10000 ft
dis

TAF: VIDP 231400Z 2315/2324 10006KT 4000 HZ SCT030 BKN100

Værobservasjoner og værvarsel for over 4000 flyplasser (METAR- og TAF-rapporter).

Tilgjengelige stasjoner er representert av de røde og gule prikkene på kartet.

Hold musepekeren over prikken for å se navnet på stasjonen.

Klikk så for å se værobservasjoner og -varsler.

For å forandre kartet kan du klikke på den grønne knappen med svart kryss for å zoome inn, på den grønne knappen med strek for å zoome ut, eller på de grønne pilene for å se tilstøtende kart.


METAR-TAF: